sensor_id;sensor_type;location;lat;lon;timestamp;temperature;humidity
3416;DHT22;1721;51.238;9.562;2023-03-23T00:01:48;13.50;87.80
3416;DHT22;1721;51.238;9.562;2023-03-23T00:04:17;13.70;86.90
3416;DHT22;1721;51.238;9.562;2023-03-23T00:06:43;13.70;87.00
3416;DHT22;1721;51.238;9.562;2023-03-23T00:09:14;13.80;86.90
3416;DHT22;1721;51.238;9.562;2023-03-23T00:11:41;13.70;87.10
3416;DHT22;1721;51.238;9.562;2023-03-23T00:14:07;13.70;86.20
3416;DHT22;1721;51.238;9.562;2023-03-23T00:16:39;13.60;86.90
3416;DHT22;1721;51.238;9.562;2023-03-23T00:19:11;13.60;87.10
3416;DHT22;1721;51.238;9.562;2023-03-23T00:21:42;13.50;86.70
3416;DHT22;1721;51.238;9.562;2023-03-23T00:24:09;13.40;86.60
3416;DHT22;1721;51.238;9.562;2023-03-23T00:26:37;13.50;86.70
3416;DHT22;1721;51.238;9.562;2023-03-23T00:29:07;13.40;87.10
3416;DHT22;1721;51.238;9.562;2023-03-23T00:31:33;13.30;87.40
3416;DHT22;1721;51.238;9.562;2023-03-23T00:34:02;13.30;88.20
3416;DHT22;1721;51.238;9.562;2023-03-23T00:36:30;13.40;87.60
3416;DHT22;1721;51.238;9.562;2023-03-23T00:38:56;13.40;87.70
3416;DHT22;1721;51.238;9.562;2023-03-23T00:41:26;13.30;88.00
3416;DHT22;1721;51.238;9.562;2023-03-23T00:43:57;13.30;88.40
3416;DHT22;1721;51.238;9.562;2023-03-23T00:46:24;13.30;88.90
3416;DHT22;1721;51.238;9.562;2023-03-23T00:48:50;13.30;89.30
3416;DHT22;1721;51.238;9.562;2023-03-23T00:51:19;13.30;90.10
3416;DHT22;1721;51.238;9.562;2023-03-23T00:53:45;13.20;90.00
3416;DHT22;1721;51.238;9.562;2023-03-23T00:56:11;13.10;90.40
3416;DHT22;1721;51.238;9.562;2023-03-23T00:58:37;13.00;90.40
3416;DHT22;1721;51.238;9.562;2023-03-23T01:01:03;13.10;90.40
3416;DHT22;1721;51.238;9.562;2023-03-23T01:03:28;13.00;90.10
3416;DHT22;1721;51.238;9.562;2023-03-23T01:05:55;13.10;90.40
3416;DHT22;1721;51.238;9.562;2023-03-23T01:08:21;13.20;90.40
3416;DHT22;1721;51.238;9.562;2023-03-23T01:10:47;13.10;90.60
3416;DHT22;1721;51.238;9.562;2023-03-23T01:13:13;13.20;90.70
3416;DHT22;1721;51.238;9.562;2023-03-23T01:15:39;13.10;90.60
3416;DHT22;1721;51.238;9.562;2023-03-23T01:18:05;13.20;91.00
3416;DHT22;1721;51.238;9.562;2023-03-23T01:20:31;13.10;91.20
3416;DHT22;1721;51.238;9.562;2023-03-23T01:22:57;12.90;91.30
3416;DHT22;1721;51.238;9.562;2023-03-23T01:25:27;12.80;91.30
3416;DHT22;1721;51.238;9.562;2023-03-23T01:27:53;12.80;91.20
3416;DHT22;1721;51.238;9.562;2023-03-23T01:30:19;12.80;91.00
3416;DHT22;1721;51.238;9.562;2023-03-23T01:32:44;12.80;91.10
3416;DHT22;1721;51.238;9.562;2023-03-23T01:35:12;12.80;90.90
3416;DHT22;1721;51.238;9.562;2023-03-23T01:37:38;12.80;90.90
3416;DHT22;1721;51.238;9.562;2023-03-23T01:40:04;12.80;90.70
3416;DHT22;1721;51.238;9.562;2023-03-23T01:42:32;12.80;91.00
3416;DHT22;1721;51.238;9.562;2023-03-23T01:45:31;12.80;91.10
3416;DHT22;1721;51.238;9.562;2023-03-23T01:48:17;12.80;91.20
3416;DHT22;1721;51.238;9.562;2023-03-23T01:53:14;12.80;91.50
3416;DHT22;1721;51.238;9.562;2023-03-23T01:55:41;12.80;91.40
3416;DHT22;1721;51.238;9.562;2023-03-23T01:58:09;12.80;91.60
3416;DHT22;1721;51.238;9.562;2023-03-23T02:00:37;12.70;91.60
3416;DHT22;1721;51.238;9.562;2023-03-23T02:03:06;12.70;91.80
3416;DHT22;1721;51.238;9.562;2023-03-23T02:05:37;12.70;91.80
3416;DHT22;1721;51.238;9.562;2023-03-23T02:08:04;12.70;92.20
3416;DHT22;1721;51.238;9.562;2023-03-23T02:10:32;12.70;92.00
3416;DHT22;1721;51.238;9.562;2023-03-23T02:12:59;12.70;92.10
3416;DHT22;1721;51.238;9.562;2023-03-23T02:15:29;12.70;92.50
3416;DHT22;1721;51.238;9.562;2023-03-23T02:18:03;12.60;93.10
3416;DHT22;1721;51.238;9.562;2023-03-23T02:26:56;12.30;94.20
3416;DHT22;1721;51.238;9.562;2023-03-23T02:29:29;12.30;94.20
3416;DHT22;1721;51.238;9.562;2023-03-23T02:35:02;12.20;94.50
3416;DHT22;1721;51.238;9.562;2023-03-23T02:37:46;12.20;94.70
3416;DHT22;1721;51.238;9.562;2023-03-23T02:40:18;12.20;94.60
3416;DHT22;1721;51.238;9.562;2023-03-23T02:42:49;12.40;94.70
3416;DHT22;1721;51.238;9.562;2023-03-23T02:45:16;12.40;94.70
3416;DHT22;1721;51.238;9.562;2023-03-23T02:47:43;12.20;94.80
3416;DHT22;1721;51.238;9.562;2023-03-23T02:50:13;12.20;94.90
3416;DHT22;1721;51.238;9.562;2023-03-23T02:52:41;12.20;94.90
3416;DHT22;1721;51.238;9.562;2023-03-23T02:55:09;12.10;95.50
3416;DHT22;1721;51.238;9.562;2023-03-23T02:57:37;12.20;95.70
3416;DHT22;1721;51.238;9.562;2023-03-23T03:00:05;12.30;96.00
3416;DHT22;1721;51.238;9.562;2023-03-23T03:02:36;12.30;96.20
3416;DHT22;1721;51.238;9.562;2023-03-23T03:05:21;12.20;96.50
3416;DHT22;1721;51.238;9.562;2023-03-23T03:08:00;12.10;97.20
3416;DHT22;1721;51.238;9.562;2023-03-23T03:18:56;11.80;98.30
3416;DHT22;1721;51.238;9.562;2023-03-23T03:21:27;11.80;98.20
3416;DHT22;1721;51.238;9.562;2023-03-23T03:23:56;11.80;98.70
3416;DHT22;1721;51.238;9.562;2023-03-23T03:26:25;11.60;99.00
3416;DHT22;1721;51.238;9.562;2023-03-23T03:28:55;11.70;99.20
3416;DHT22;1721;51.238;9.562;2023-03-23T03:31:26;11.60;99.40
3416;DHT22;1721;51.238;9.562;2023-03-23T03:33:53;11.60;99.50
3416;DHT22;1721;51.238;9.562;2023-03-23T03:36:21;11.50;99.60
3416;DHT22;1721;51.238;9.562;2023-03-23T03:38:49;11.70;99.40
3416;DHT22;1721;51.238;9.562;2023-03-23T03:41:16;11.70;99.60
3416;DHT22;1721;51.238;9.562;2023-03-23T03:43:42;11.60;99.70
3416;DHT22;1721;51.238;9.562;2023-03-23T03:46:08;11.60;99.90
3416;DHT22;1721;51.238;9.562;2023-03-23T03:48:34;11.70;99.90
3416;DHT22;1721;51.238;9.562;2023-03-23T03:50:59;11.60;99.90
3416;DHT22;1721;51.238;9.562;2023-03-23T03:53:26;11.40;99.90
3416;DHT22;1721;51.238;9.562;2023-03-23T03:55:52;11.40;99.90
3416;DHT22;1721;51.238;9.562;2023-03-23T03:58:21;11.30;99.90
3416;DHT22;1721;51.238;9.562;2023-03-23T04:00:48;11.20;99.90
3416;DHT22;1721;51.238;9.562;2023-03-23T04:03:14;11.00;99.90
3416;DHT22;1721;51.238;9.562;2023-03-23T04:05:40;11.00;99.90
3416;DHT22;1721;51.238;9.562;2023-03-23T04:08:07;11.00;99.90
3416;DHT22;1721;51.238;9.562;2023-03-23T04:10:32;11.00;99.90
3416;DHT22;1721;51.238;9.562;2023-03-23T04:12:59;11.10;99.90
3416;DHT22;1721;51.238;9.562;2023-03-23T04:15:25;11.10;99.90
3416;DHT22;1721;51.238;9.562;2023-03-23T04:17:50;11.10;99.90
3416;DHT22;1721;51.238;9.562;2023-03-23T04:20:16;11.20;99.90
3416;DHT22;1721;51.238;9.562;2023-03-23T04:22:46;11.10;99.90
3416;DHT22;1721;51.238;9.562;2023-03-23T04:25:16;11.10;99.90
3416;DHT22;1721;51.238;9.562;2023-03-23T04:27:43;11.00;99.90
3416;DHT22;1721;51.238;9.562;2023-03-23T04:30:12;11.10;99.90
3416;DHT22;1721;51.238;9.562;2023-03-23T04:32:38;11.10;99.90
3416;DHT22;1721;51.238;9.562;2023-03-23T04:35:11;11.00;99.90
3416;DHT22;1721;51.238;9.562;2023-03-23T04:37:38;11.00;99.90
3416;DHT22;1721;51.238;9.562;2023-03-23T04:40:05;10.90;99.90
3416;DHT22;1721;51.238;9.562;2023-03-23T04:42:37;10.80;99.90
3416;DHT22;1721;51.238;9.562;2023-03-23T04:45:04;10.90;99.90
3416;DHT22;1721;51.238;9.562;2023-03-23T04:47:33;10.90;99.90
3416;DHT22;1721;51.238;9.562;2023-03-23T04:50:00;10.90;99.90
3416;DHT22;1721;51.238;9.562;2023-03-23T04:52:27;10.80;99.90
3416;DHT22;1721;51.238;9.562;2023-03-23T04:54:54;10.80;99.90
3416;DHT22;1721;51.238;9.562;2023-03-23T04:57:21;10.90;99.90
3416;DHT22;1721;51.238;9.562;2023-03-23T04:59:47;10.90;99.90
3416;DHT22;1721;51.238;9.562;2023-03-23T05:02:13;10.90;99.90
3416;DHT22;1721;51.238;9.562;2023-03-23T05:04:40;10.80;99.90
3416;DHT22;1721;51.238;9.562;2023-03-23T05:07:07;10.90;99.90
3416;DHT22;1721;51.238;9.562;2023-03-23T05:09:33;10.90;99.90
3416;DHT22;1721;51.238;9.562;2023-03-23T05:12:06;10.90;99.90
3416;DHT22;1721;51.238;9.562;2023-03-23T05:14:32;10.70;99.90
3416;DHT22;1721;51.238;9.562;2023-03-23T05:16:58;10.70;99.90
3416;DHT22;1721;51.238;9.562;2023-03-23T05:19:23;10.70;99.90
3416;DHT22;1721;51.238;9.562;2023-03-23T05:21:49;10.90;99.90
3416;DHT22;1721;51.238;9.562;2023-03-23T05:24:14;10.90;99.90
3416;DHT22;1721;51.238;9.562;2023-03-23T05:26:40;10.90;99.90
3416;DHT22;1721;51.238;9.562;2023-03-23T05:29:06;10.80;99.90
3416;DHT22;1721;51.238;9.562;2023-03-23T05:31:31;10.80;99.90
3416;DHT22;1721;51.238;9.562;2023-03-23T05:33:57;10.90;99.90
3416;DHT22;1721;51.238;9.562;2023-03-23T05:36:23;10.90;99.90
3416;DHT22;1721;51.238;9.562;2023-03-23T05:38:50;10.70;99.90
3416;DHT22;1721;51.238;9.562;2023-03-23T05:41:16;10.80;99.90
3416;DHT22;1721;51.238;9.562;2023-03-23T05:43:42;10.90;99.90
3416;DHT22;1721;51.238;9.562;2023-03-23T05:46:07;10.80;99.90
3416;DHT22;1721;51.238;9.562;2023-03-23T05:48:34;10.70;99.90
3416;DHT22;1721;51.238;9.562;2023-03-23T05:50:59;10.80;99.90
3416;DHT22;1721;51.238;9.562;2023-03-23T05:53:25;10.70;99.90
3416;DHT22;1721;51.238;9.562;2023-03-23T05:55:51;10.80;99.90
3416;DHT22;1721;51.238;9.562;2023-03-23T05:58:18;10.60;99.90
3416;DHT22;1721;51.238;9.562;2023-03-23T06:00:43;10.70;99.90
3416;DHT22;1721;51.238;9.562;2023-03-23T06:03:10;10.60;99.90
3416;DHT22;1721;51.238;9.562;2023-03-23T06:05:42;10.60;99.90
3416;DHT22;1721;51.238;9.562;2023-03-23T06:08:09;10.70;99.90
3416;DHT22;1721;51.238;9.562;2023-03-23T06:10:35;10.70;99.90
3416;DHT22;1721;51.238;9.562;2023-03-23T06:13:02;10.80;99.90
3416;DHT22;1721;51.238;9.562;2023-03-23T06:15:28;10.80;99.90
3416;DHT22;1721;51.238;9.562;2023-03-23T06:17:58;11.00;99.90
3416;DHT22;1721;51.238;9.562;2023-03-23T06:20:24;10.90;99.90
3416;DHT22;1721;51.238;9.562;2023-03-23T06:22:50;10.90;99.90
3416;DHT22;1721;51.238;9.562;2023-03-23T06:25:17;10.90;99.90
3416;DHT22;1721;51.238;9.562;2023-03-23T06:27:43;10.80;99.90
3416;DHT22;1721;51.238;9.562;2023-03-23T06:30:09;10.90;99.90
3416;DHT22;1721;51.238;9.562;2023-03-23T06:32:35;10.90;99.90
3416;DHT22;1721;51.238;9.562;2023-03-23T06:35:01;10.90;99.90
3416;DHT22;1721;51.238;9.562;2023-03-23T06:37:27;10.70;99.90
3416;DHT22;1721;51.238;9.562;2023-03-23T06:39:52;10.80;99.90
3416;DHT22;1721;51.238;9.562;2023-03-23T06:42:18;10.90;99.90
3416;DHT22;1721;51.238;9.562;2023-03-23T06:44:44;10.80;99.90
3416;DHT22;1721;51.238;9.562;2023-03-23T06:47:09;11.00;99.90
3416;DHT22;1721;51.238;9.562;2023-03-23T06:49:35;11.00;99.90
3416;DHT22;1721;51.238;9.562;2023-03-23T06:52:01;11.10;99.90
3416;DHT22;1721;51.238;9.562;2023-03-23T06:54:28;11.20;99.90
3416;DHT22;1721;51.238;9.562;2023-03-23T06:56:54;11.30;99.90
3416;DHT22;1721;51.238;9.562;2023-03-23T06:59:19;11.40;99.90
3416;DHT22;1721;51.238;9.562;2023-03-23T07:01:45;11.50;99.90
3416;DHT22;1721;51.238;9.562;2023-03-23T07:04:12;11.70;99.90
3416;DHT22;1721;51.238;9.562;2023-03-23T07:06:37;11.70;99.90
3416;DHT22;1721;51.238;9.562;2023-03-23T07:09:03;11.80;99.90
3416;DHT22;1721;51.238;9.562;2023-03-23T07:11:30;11.80;99.90
3416;DHT22;1721;51.238;9.562;2023-03-23T07:13:57;11.80;99.90
3416;DHT22;1721;51.238;9.562;2023-03-23T07:16:23;11.90;99.90
3416;DHT22;1721;51.238;9.562;2023-03-23T07:18:48;11.90;99.90
3416;DHT22;1721;51.238;9.562;2023-03-23T07:21:14;12.00;99.90
3416;DHT22;1721;51.238;9.562;2023-03-23T07:23:39;11.90;99.90
3416;DHT22;1721;51.238;9.562;2023-03-23T07:26:05;11.90;99.90
3416;DHT22;1721;51.238;9.562;2023-03-23T07:28:32;11.90;99.90
3416;DHT22;1721;51.238;9.562;2023-03-23T07:30:57;11.80;99.90
3416;DHT22;1721;51.238;9.562;2023-03-23T07:33:23;11.90;99.90
3416;DHT22;1721;51.238;9.562;2023-03-23T07:35:48;12.00;99.90
3416;DHT22;1721;51.238;9.562;2023-03-23T07:38:14;12.00;99.90
3416;DHT22;1721;51.238;9.562;2023-03-23T07:40:40;11.90;99.90
3416;DHT22;1721;51.238;9.562;2023-03-23T07:43:06;11.80;99.90
3416;DHT22;1721;51.238;9.562;2023-03-23T07:45:32;11.80;99.90
3416;DHT22;1721;51.238;9.562;2023-03-23T07:47:59;11.70;99.90
3416;DHT22;1721;51.238;9.562;2023-03-23T07:50:25;11.90;99.90
3416;DHT22;1721;51.238;9.562;2023-03-23T07:52:54;12.10;99.90
3416;DHT22;1721;51.238;9.562;2023-03-23T07:55:20;12.30;99.90
3416;DHT22;1721;51.238;9.562;2023-03-23T07:57:47;12.20;99.90
3416;DHT22;1721;51.238;9.562;2023-03-23T08:00:15;12.30;99.90
3416;DHT22;1721;51.238;9.562;2023-03-23T08:02:43;12.40;99.90
3416;DHT22;1721;51.238;9.562;2023-03-23T08:05:09;12.60;99.90
3416;DHT22;1721;51.238;9.562;2023-03-23T08:07:36;12.70;99.90
3416;DHT22;1721;51.238;9.562;2023-03-23T08:10:02;12.70;99.90
3416;DHT22;1721;51.238;9.562;2023-03-23T08:12:28;13.00;99.90
3416;DHT22;1721;51.238;9.562;2023-03-23T08:14:54;13.20;99.90
3416;DHT22;1721;51.238;9.562;2023-03-23T08:17:20;13.10;99.90
3416;DHT22;1721;51.238;9.562;2023-03-23T08:19:45;13.00;99.90
3416;DHT22;1721;51.238;9.562;2023-03-23T08:22:11;13.00;99.90
3416;DHT22;1721;51.238;9.562;2023-03-23T08:24:37;13.10;99.90
3416;DHT22;1721;51.238;9.562;2023-03-23T08:27:03;13.00;99.90
3416;DHT22;1721;51.238;9.562;2023-03-23T08:29:28;13.00;99.90
3416;DHT22;1721;51.238;9.562;2023-03-23T08:31:54;13.20;99.90
3416;DHT22;1721;51.238;9.562;2023-03-23T08:34:20;13.20;99.90
3416;DHT22;1721;51.238;9.562;2023-03-23T08:36:46;13.40;99.90
3416;DHT22;1721;51.238;9.562;2023-03-23T08:39:13;13.40;99.90
3416;DHT22;1721;51.238;9.562;2023-03-23T08:41:43;13.50;99.90
3416;DHT22;1721;51.238;9.562;2023-03-23T08:44:10;13.50;99.80
3416;DHT22;1721;51.238;9.562;2023-03-23T08:46:36;13.50;99.80
3416;DHT22;1721;51.238;9.562;2023-03-23T08:49:01;13.70;99.70
3416;DHT22;1721;51.238;9.562;2023-03-23T08:51:27;13.70;99.30
3416;DHT22;1721;51.238;9.562;2023-03-23T08:53:53;13.50;99.10
3416;DHT22;1721;51.238;9.562;2023-03-23T08:56:19;13.40;99.20
3416;DHT22;1721;51.238;9.562;2023-03-23T08:58:45;13.40;99.40
3416;DHT22;1721;51.238;9.562;2023-03-23T09:01:11;13.40;99.20
3416;DHT22;1721;51.238;9.562;2023-03-23T09:03:37;13.30;99.40
3416;DHT22;1721;51.238;9.562;2023-03-23T09:06:05;13.50;99.50
3416;DHT22;1721;51.238;9.562;2023-03-23T09:08:31;13.60;99.20
3416;DHT22;1721;51.238;9.562;2023-03-23T09:11:04;13.60;99.10
3416;DHT22;1721;51.238;9.562;2023-03-23T09:13:31;13.60;99.30
3416;DHT22;1721;51.238;9.562;2023-03-23T09:15:56;13.50;99.40
3416;DHT22;1721;51.238;9.562;2023-03-23T09:18:23;13.60;99.20
3416;DHT22;1721;51.238;9.562;2023-03-23T09:20:53;13.80;99.10
3416;DHT22;1721;51.238;9.562;2023-03-23T09:23:19;13.60;98.80
3416;DHT22;1721;51.238;9.562;2023-03-23T09:25:46;13.70;99.10
3416;DHT22;1721;51.238;9.562;2023-03-23T09:28:12;13.80;98.80
3416;DHT22;1721;51.238;9.562;2023-03-23T09:30:39;13.70;98.30
3416;DHT22;1721;51.238;9.562;2023-03-23T09:33:06;13.60;98.50
3416;DHT22;1721;51.238;9.562;2023-03-23T09:35:33;13.70;98.70
3416;DHT22;1721;51.238;9.562;2023-03-23T09:38:01;13.70;98.30
3416;DHT22;1721;51.238;9.562;2023-03-23T09:43:13;13.70;98.10
3416;DHT22;1721;51.238;9.562;2023-03-23T09:54:21;14.20;97.40
3416;DHT22;1721;51.238;9.562;2023-03-23T09:56:49;14.10;97.20
3416;DHT22;1721;51.238;9.562;2023-03-23T10:01:48;14.10;97.40
3416;DHT22;1721;51.238;9.562;2023-03-23T10:07:00;13.90;97.20
3416;DHT22;1721;51.238;9.562;2023-03-23T10:09:31;13.90;97.60
3416;DHT22;1721;51.238;9.562;2023-03-23T10:17:27;14.00;97.20
3416;DHT22;1721;51.238;9.562;2023-03-23T10:20:04;14.00;97.10
3416;DHT22;1721;51.238;9.562;2023-03-23T10:22:39;14.00;97.20
3416;DHT22;1721;51.238;9.562;2023-03-23T10:25:16;14.10;96.90
3416;DHT22;1721;51.238;9.562;2023-03-23T10:27:52;14.20;97.00
3416;DHT22;1721;51.238;9.562;2023-03-23T10:30:37;14.40;97.00
3416;DHT22;1721;51.238;9.562;2023-03-23T10:33:18;14.40;96.60
3416;DHT22;1721;51.238;9.562;2023-03-23T10:35:50;14.40;96.50
3416;DHT22;1721;51.238;9.562;2023-03-23T10:38:29;14.30;96.50
3416;DHT22;1721;51.238;9.562;2023-03-23T10:41:00;14.40;96.70
3416;DHT22;1721;51.238;9.562;2023-03-23T10:43:27;14.50;96.50
3416;DHT22;1721;51.238;9.562;2023-03-23T10:45:58;14.50;96.30
3416;DHT22;1721;51.238;9.562;2023-03-23T10:48:31;14.60;96.20
3416;DHT22;1721;51.238;9.562;2023-03-23T10:51:01;14.60;96.10
3416;DHT22;1721;51.238;9.562;2023-03-23T10:53:42;14.50;95.70
3416;DHT22;1721;51.238;9.562;2023-03-23T10:56:40;14.50;95.70
3416;DHT22;1721;51.238;9.562;2023-03-23T11:01:53;14.30;95.50
3416;DHT22;1721;51.238;9.562;2023-03-23T11:04:20;14.40;95.20
3416;DHT22;1721;51.238;9.562;2023-03-23T11:06:58;14.20;95.60
3416;DHT22;1721;51.238;9.562;2023-03-23T11:09:39;14.10;95.70
3416;DHT22;1721;51.238;9.562;2023-03-23T11:12:18;14.20;95.90
3416;DHT22;1721;51.238;9.562;2023-03-23T11:14:44;14.20;95.90
3416;DHT22;1721;51.238;9.562;2023-03-23T11:17:22;14.00;96.10
3416;DHT22;1721;51.238;9.562;2023-03-23T11:19:48;14.20;96.70
3416;DHT22;1721;51.238;9.562;2023-03-23T11:22:24;14.30;96.40
3416;DHT22;1721;51.238;9.562;2023-03-23T11:24:53;14.50;96.20
3416;DHT22;1721;51.238;9.562;2023-03-23T11:27:20;14.70;95.90
3416;DHT22;1721;51.238;9.562;2023-03-23T11:29:58;14.70;95.80
3416;DHT22;1721;51.238;9.562;2023-03-23T11:32:28;14.60;95.50
3416;DHT22;1721;51.238;9.562;2023-03-23T11:34:58;14.70;95.40
3416;DHT22;1721;51.238;9.562;2023-03-23T11:40:23;15.00;95.60
3416;DHT22;1721;51.238;9.562;2023-03-23T11:43:07;15.10;95.20
3416;DHT22;1721;51.238;9.562;2023-03-23T11:45:35;15.20;95.30
3416;DHT22;1721;51.238;9.562;2023-03-23T11:50:54;14.60;95.80
3416;DHT22;1721;51.238;9.562;2023-03-23T11:53:40;14.60;95.40
3416;DHT22;1721;51.238;9.562;2023-03-23T11:56:24;14.60;95.50
3416;DHT22;1721;51.238;9.562;2023-03-23T11:58:54;14.60;95.70
3416;DHT22;1721;51.238;9.562;2023-03-23T12:01:42;14.70;95.50
3416;DHT22;1721;51.238;9.562;2023-03-23T12:07:02;14.80;95.60
3416;DHT22;1721;51.238;9.562;2023-03-23T12:10:10;14.90;95.80
3416;DHT22;1721;51.238;9.562;2023-03-23T12:15:43;14.80;95.40
3416;DHT22;1721;51.238;9.562;2023-03-23T12:21:08;14.20;95.80
3416;DHT22;1721;51.238;9.562;2023-03-23T12:26:27;14.00;96.40
3416;DHT22;1721;51.238;9.562;2023-03-23T12:34:26;14.30;96.00
3416;DHT22;1721;51.238;9.562;2023-03-23T12:37:10;14.30;96.10
3416;DHT22;1721;51.238;9.562;2023-03-23T12:39:48;14.30;96.40
3416;DHT22;1721;51.238;9.562;2023-03-23T12:42:45;14.10;96.60
3416;DHT22;1721;51.238;9.562;2023-03-23T12:45:23;14.10;96.30
3416;DHT22;1721;51.238;9.562;2023-03-23T12:48:01;14.20;96.70
3416;DHT22;1721;51.238;9.562;2023-03-23T12:50:30;14.50;96.30
3416;DHT22;1721;51.238;9.562;2023-03-23T12:53:22;14.70;95.90
3416;DHT22;1721;51.238;9.562;2023-03-23T12:58:45;14.80;95.40
3416;DHT22;1721;51.238;9.562;2023-03-23T13:01:22;14.90;95.20
3416;DHT22;1721;51.238;9.562;2023-03-23T13:06:31;14.80;95.10
3416;DHT22;1721;51.238;9.562;2023-03-23T13:09:19;14.70;94.90
3416;DHT22;1721;51.238;9.562;2023-03-23T13:11:47;14.60;94.90
3416;DHT22;1721;51.238;9.562;2023-03-23T13:14:41;14.70;95.20
3416;DHT22;1721;51.238;9.562;2023-03-23T13:28:19;15.20;95.30
3416;DHT22;1721;51.238;9.562;2023-03-23T13:33:35;15.10;94.80
3416;DHT22;1721;51.238;9.562;2023-03-23T13:36:08;14.90;95.60
3416;DHT22;1721;51.238;9.562;2023-03-23T13:38:34;15.00;95.70
3416;DHT22;1721;51.238;9.562;2023-03-23T13:41:10;15.10;95.70
3416;DHT22;1721;51.238;9.562;2023-03-23T13:43:38;15.20;95.20
3416;DHT22;1721;51.238;9.562;2023-03-23T13:46:28;15.20;95.20
3416;DHT22;1721;51.238;9.562;2023-03-23T13:56:43;15.40;94.10
3416;DHT22;1721;51.238;9.562;2023-03-23T13:59:14;15.30;94.00
3416;DHT22;1721;51.238;9.562;2023-03-23T14:01:40;15.40;94.60
3416;DHT22;1721;51.238;9.562;2023-03-23T14:04:13;15.30;93.90
3416;DHT22;1721;51.238;9.562;2023-03-23T14:06:40;15.20;93.90
3416;DHT22;1721;51.238;9.562;2023-03-23T14:09:39;15.20;94.00
3416;DHT22;1721;51.238;9.562;2023-03-23T14:12:14;15.30;94.20
3416;DHT22;1721;51.238;9.562;2023-03-23T14:14:46;15.30;93.80
3416;DHT22;1721;51.238;9.562;2023-03-23T14:17:25;15.20;94.40
3416;DHT22;1721;51.238;9.562;2023-03-23T14:19:56;15.20;94.10
3416;DHT22;1721;51.238;9.562;2023-03-23T14:22:27;15.20;93.90
3416;DHT22;1721;51.238;9.562;2023-03-23T14:25:08;15.20;93.70
3416;DHT22;1721;51.238;9.562;2023-03-23T14:27:35;15.20;94.10
3416;DHT22;1721;51.238;9.562;2023-03-23T14:30:08;15.10;94.20
3416;DHT22;1721;51.238;9.562;2023-03-23T14:32:34;15.10;94.40
3416;DHT22;1721;51.238;9.562;2023-03-23T14:35:05;15.10;94.40
3416;DHT22;1721;51.238;9.562;2023-03-23T14:37:33;15.20;94.20
3416;DHT22;1721;51.238;9.562;2023-03-23T14:40:01;15.10;94.10
3416;DHT22;1721;51.238;9.562;2023-03-23T14:42:32;15.10;94.00
3416;DHT22;1721;51.238;9.562;2023-03-23T14:44:59;15.20;93.80
3416;DHT22;1721;51.238;9.562;2023-03-23T14:47:31;15.30;93.20
3416;DHT22;1721;51.238;9.562;2023-03-23T14:49:59;15.30;93.20
3416;DHT22;1721;51.238;9.562;2023-03-23T14:52:28;15.10;93.20
3416;DHT22;1721;51.238;9.562;2023-03-23T14:54:54;14.90;93.50
3416;DHT22;1721;51.238;9.562;2023-03-23T14:57:27;14.80;93.80
3416;DHT22;1721;51.238;9.562;2023-03-23T14:59:53;14.60;93.80
3416;DHT22;1721;51.238;9.562;2023-03-23T15:02:30;14.60;94.10
3416;DHT22;1721;51.238;9.562;2023-03-23T15:05:16;14.50;94.10
3416;DHT22;1721;51.238;9.562;2023-03-23T15:07:46;14.60;94.30
3416;DHT22;1721;51.238;9.562;2023-03-23T15:10:16;14.60;94.00
3416;DHT22;1721;51.238;9.562;2023-03-23T15:12:45;14.40;94.10
3416;DHT22;1721;51.238;9.562;2023-03-23T15:15:25;14.30;94.30
3416;DHT22;1721;51.238;9.562;2023-03-23T15:17:51;14.30;94.50
3416;DHT22;1721;51.238;9.562;2023-03-23T15:20:48;14.40;94.80
3416;DHT22;1721;51.238;9.562;2023-03-23T15:23:21;14.40;94.40
3416;DHT22;1721;51.238;9.562;2023-03-23T15:25:52;14.50;94.10
3416;DHT22;1721;51.238;9.562;2023-03-23T15:28:20;14.40;94.40
3416;DHT22;1721;51.238;9.562;2023-03-23T15:30:52;14.50;94.20
3416;DHT22;1721;51.238;9.562;2023-03-23T15:33:18;14.60;94.60
3416;DHT22;1721;51.238;9.562;2023-03-23T15:35:51;14.60;94.20
3416;DHT22;1721;51.238;9.562;2023-03-23T15:38:29;14.70;94.00
3416;DHT22;1721;51.238;9.562;2023-03-23T15:40:58;14.80;93.90
3416;DHT22;1721;51.238;9.562;2023-03-23T15:48:22;14.60;94.40
3416;DHT22;1721;51.238;9.562;2023-03-23T15:50:49;14.60;94.60
3416;DHT22;1721;51.238;9.562;2023-03-23T15:53:32;14.40;94.80
3416;DHT22;1721;51.238;9.562;2023-03-23T15:56:00;14.30;95.00
3416;DHT22;1721;51.238;9.562;2023-03-23T15:58:26;14.30;95.10
3416;DHT22;1721;51.238;9.562;2023-03-23T16:00:52;14.40;95.10
3416;DHT22;1721;51.238;9.562;2023-03-23T16:03:24;14.40;95.30
3416;DHT22;1721;51.238;9.562;2023-03-23T16:05:56;14.60;95.10
3416;DHT22;1721;51.238;9.562;2023-03-23T16:08:24;14.60;95.20
3416;DHT22;1721;51.238;9.562;2023-03-23T16:10:50;14.60;95.00
3416;DHT22;1721;51.238;9.562;2023-03-23T16:13:16;14.60;95.20
3416;DHT22;1721;51.238;9.562;2023-03-23T16:15:43;14.70;95.30
3416;DHT22;1721;51.238;9.562;2023-03-23T16:18:17;14.80;95.10
3416;DHT22;1721;51.238;9.562;2023-03-23T16:20:43;15.00;95.00
3416;DHT22;1721;51.238;9.562;2023-03-23T16:23:08;14.80;95.00
3416;DHT22;1721;51.238;9.562;2023-03-23T16:25:34;14.80;95.10
3416;DHT22;1721;51.238;9.562;2023-03-23T16:27:59;14.70;95.20
3416;DHT22;1721;51.238;9.562;2023-03-23T16:30:27;14.70;94.90
3416;DHT22;1721;51.238;9.562;2023-03-23T16:32:54;14.60;95.20
3416;DHT22;1721;51.238;9.562;2023-03-23T16:35:20;14.80;95.20
3416;DHT22;1721;51.238;9.562;2023-03-23T16:37:48;14.70;95.40
3416;DHT22;1721;51.238;9.562;2023-03-23T16:40:15;14.70;95.70
3416;DHT22;1721;51.238;9.562;2023-03-23T16:42:41;14.70;96.10
3416;DHT22;1721;51.238;9.562;2023-03-23T16:45:07;14.50;96.00
3416;DHT22;1721;51.238;9.562;2023-03-23T16:47:33;14.40;96.20
3416;DHT22;1721;51.238;9.562;2023-03-23T16:49:59;14.20;96.50
3416;DHT22;1721;51.238;9.562;2023-03-23T16:52:25;14.30;96.50
3416;DHT22;1721;51.238;9.562;2023-03-23T16:54:51;14.30;96.40
3416;DHT22;1721;51.238;9.562;2023-03-23T16:57:17;14.30;96.50
3416;DHT22;1721;51.238;9.562;2023-03-23T16:59:42;14.10;96.60
3416;DHT22;1721;51.238;9.562;2023-03-23T17:02:10;14.20;96.50
3416;DHT22;1721;51.238;9.562;2023-03-23T17:04:36;14.20;96.60
3416;DHT22;1721;51.238;9.562;2023-03-23T17:07:02;14.20;96.70
3416;DHT22;1721;51.238;9.562;2023-03-23T17:09:28;14.10;96.50
3416;DHT22;1721;51.238;9.562;2023-03-23T17:11:54;14.00;96.50
3416;DHT22;1721;51.238;9.562;2023-03-23T17:14:20;13.90;96.50
3416;DHT22;1721;51.238;9.562;2023-03-23T17:16:46;13.80;96.70
3416;DHT22;1721;51.238;9.562;2023-03-23T17:19:12;13.80;96.80
3416;DHT22;1721;51.238;9.562;2023-03-23T17:21:39;13.70;96.90
3416;DHT22;1721;51.238;9.562;2023-03-23T17:24:06;13.50;97.10
3416;DHT22;1721;51.238;9.562;2023-03-23T17:26:32;13.50;97.20
3416;DHT22;1721;51.238;9.562;2023-03-23T17:28:57;13.50;97.10
3416;DHT22;1721;51.238;9.562;2023-03-23T17:31:23;13.40;97.30
3416;DHT22;1721;51.238;9.562;2023-03-23T17:33:49;13.30;97.50
3416;DHT22;1721;51.238;9.562;2023-03-23T17:36:16;13.30;97.20
3416;DHT22;1721;51.238;9.562;2023-03-23T17:38:42;13.30;97.30
3416;DHT22;1721;51.238;9.562;2023-03-23T17:41:08;13.30;97.40
3416;DHT22;1721;51.238;9.562;2023-03-23T17:43:36;13.40;97.40
3416;DHT22;1721;51.238;9.562;2023-03-23T17:46:04;13.20;97.50
3416;DHT22;1721;51.238;9.562;2023-03-23T17:48:29;13.20;97.70
3416;DHT22;1721;51.238;9.562;2023-03-23T17:50:55;13.30;97.60
3416;DHT22;1721;51.238;9.562;2023-03-23T17:53:27;13.20;97.60
3416;DHT22;1721;51.238;9.562;2023-03-23T17:55:53;13.10;97.90